createdAt,value
2019-05-02T00:03:10.997Z,99.90
2019-05-02T00:08:17.547Z,99.90
2019-05-02T00:13:24.196Z,99.90
2019-05-02T00:18:31.990Z,99.90
2019-05-02T00:23:39.296Z,99.90
2019-05-02T00:28:47.945Z,99.90
2019-05-02T00:33:55.367Z,99.90
2019-05-02T00:39:01.931Z,99.90
2019-05-02T00:44:10.989Z,99.90
2019-05-02T00:49:18.830Z,99.90
2019-05-02T00:54:25.448Z,99.90
2019-05-02T00:59:37.810Z,99.90
2019-05-02T01:04:43.848Z,99.90
2019-05-02T01:09:50.382Z,99.90
2019-05-02T01:14:56.875Z,99.90
2019-05-02T01:20:03.534Z,99.90
2019-05-02T01:25:15.073Z,99.90
2019-05-02T01:30:42.483Z,99.90
2019-05-02T01:36:08.199Z,99.90
2019-05-02T01:41:14.972Z,99.90
2019-05-02T01:46:22.375Z,99.90
2019-05-02T01:51:29.939Z,99.90
2019-05-02T01:56:36.540Z,99.90
2019-05-02T02:01:43.157Z,99.90
2019-05-02T02:06:49.879Z,99.90
2019-05-02T02:11:56.392Z,99.90
2019-05-02T02:17:03.032Z,99.90
2019-05-02T02:22:20.132Z,99.90
2019-05-02T02:27:27.826Z,99.90
2019-05-02T02:32:34.400Z,99.90
2019-05-02T02:37:51.918Z,99.90
2019-05-02T02:42:49.308Z,99.90
2019-05-02T02:47:59.830Z,99.90
2019-05-02T02:53:04.144Z,99.90
2019-05-02T02:58:10.805Z,99.90
2019-05-02T03:03:20.685Z,99.90
2019-05-02T03:08:26.040Z,99.90
2019-05-02T03:14:05.598Z,99.90
2019-05-02T03:19:05.896Z,99.90
2019-05-02T03:24:12.936Z,99.90
2019-05-02T03:29:19.751Z,99.90
2019-05-02T03:34:45.370Z,99.90
2019-05-02T03:39:35.124Z,99.90
2019-05-02T03:44:41.898Z,99.90
2019-05-02T03:49:51.763Z,99.90
2019-05-02T03:54:56.989Z,99.90
2019-05-02T04:00:03.745Z,99.90
2019-05-02T04:05:10.430Z,99.90
2019-05-02T04:10:59.373Z,99.90
2019-05-02T04:16:01.765Z,99.90
2019-05-02T04:21:08.363Z,99.90
2019-05-02T04:26:17.160Z,99.90
2019-05-02T04:31:24.777Z,99.90
2019-05-02T04:36:32.625Z,99.90
2019-05-02T04:41:42.450Z,99.90
2019-05-02T04:46:48.834Z,99.90
2019-05-02T04:52:04.443Z,99.90
2019-05-02T04:57:04.049Z,99.90
2019-05-02T05:02:10.783Z,99.90
2019-05-02T05:07:17.831Z,99.90
2019-05-02T05:12:24.468Z,99.90
2019-05-02T05:17:34.035Z,99.90
2019-05-02T05:22:44.190Z,99.90
2019-05-02T05:27:52.626Z,99.90
2019-05-02T05:32:58.332Z,99.90
2019-05-02T05:38:05.179Z,99.90
2019-05-02T05:43:15.623Z,99.90
2019-05-02T05:48:20.186Z,99.90
2019-05-02T05:53:28.189Z,99.90
2019-05-02T05:58:39.744Z,99.90
2019-05-02T06:03:45.010Z,99.90
2019-05-02T06:08:54.188Z,99.90
2019-05-02T06:13:59.646Z,99.00
2019-05-02T06:19:06.325Z,98.10
2019-05-02T06:24:15.739Z,97.20
2019-05-02T06:29:21.249Z,96.10
2019-05-02T06:34:27.716Z,95.90
2019-05-02T06:39:34.424Z,94.30
2019-05-02T06:44:41.064Z,94.60
2019-05-02T06:49:47.748Z,92.30
2019-05-02T06:54:57.890Z,89.10
2019-05-02T07:00:02.555Z,92.00
2019-05-02T07:05:11.076Z,90.80
2019-05-02T07:10:19.991Z,91.30
2019-05-02T07:15:44.788Z,88.30
2019-05-02T07:20:51.411Z,88.10
2019-05-02T07:26:00.291Z,86.40
2019-05-02T07:31:11.808Z,86.50
2019-05-02T07:36:15.019Z,86.70
2019-05-02T07:41:24.142Z,87.20
2019-05-02T07:46:31.153Z,83.90
2019-05-02T07:51:37.806Z,81.10
2019-05-02T07:56:48.664Z,83.80
2019-05-02T08:01:53.057Z,84.30
2019-05-02T08:06:59.720Z,81.40
2019-05-02T08:12:07.876Z,83.80
2019-05-02T08:17:17.489Z,79.60
2019-05-02T08:22:22.916Z,78.00
2019-05-02T08:27:48.509Z,79.30
2019-05-02T08:32:55.184Z,80.60
2019-05-02T08:38:01.834Z,75.40
2019-05-02T08:43:08.993Z,76.50
2019-05-02T08:48:16.787Z,77.30
2019-05-02T08:53:23.458Z,77.80
2019-05-02T08:58:30.125Z,76.30
2019-05-02T09:03:54.783Z,71.50
2019-05-02T09:08:46.173Z,69.90
2019-05-02T09:13:54.448Z,68.30
2019-05-02T09:19:02.785Z,64.90
2019-05-02T09:24:13.571Z,66.50
2019-05-02T09:29:17.672Z,69.90
2019-05-02T09:34:26.714Z,66.70
2019-05-02T09:39:36.479Z,65.40
2019-05-02T09:44:42.586Z,66.90
2019-05-02T09:49:53.088Z,68.70
2019-05-02T09:54:59.305Z,68.10
2019-05-02T10:00:12.791Z,69.30
2019-05-02T10:05:18.659Z,64.80
2019-05-02T10:10:25.387Z,63.40
2019-05-02T10:15:32.847Z,63.00
2019-05-02T10:20:41.738Z,65.70
2019-05-02T10:25:47.944Z,62.90
2019-05-02T10:30:56.683Z,61.60
2019-05-02T10:36:03.368Z,62.00
2019-05-02T10:41:11.867Z,66.40
2019-05-02T10:46:37.538Z,62.00
2019-05-02T10:51:48.986Z,61.70
2019-05-02T10:56:51.712Z,59.90
2019-05-02T11:02:22.123Z,59.00
2019-05-02T11:07:28.334Z,56.30
2019-05-02T11:12:44.400Z,58.10
2019-05-02T11:17:49.667Z,58.50
2019-05-02T11:22:56.351Z,56.60
2019-05-02T11:28:07.150Z,53.40
2019-05-02T11:33:13.333Z,53.40
2019-05-02T11:38:36.338Z,54.30
2019-05-02T11:43:29.124Z,56.60
2019-05-02T11:48:35.745Z,53.90
2019-05-02T11:53:42.332Z,53.70
2019-05-02T11:58:50.291Z,55.10
2019-05-02T12:03:57.251Z,54.40
2019-05-02T12:09:06.976Z,53.70
2019-05-02T12:14:13.614Z,56.30
2019-05-02T12:19:20.147Z,52.70
2019-05-02T12:24:27.283Z,54.90
2019-05-02T12:29:34.010Z,53.30
2019-05-02T12:34:54.473Z,54.10
2019-05-02T12:40:02.725Z,55.50
2019-05-02T12:45:09.709Z,54.50
2019-05-02T12:50:16.979Z,53.20
2019-05-02T12:55:23.670Z,53.00
2019-05-02T13:00:32.012Z,53.60
2019-05-02T13:05:38.722Z,53.60
2019-05-02T13:11:06.837Z,53.00
2019-05-02T13:16:14.378Z,52.40
2019-05-02T13:21:38.724Z,52.20
2019-05-02T13:26:34.573Z,53.60
2019-05-02T13:31:52.359Z,48.90
2019-05-02T13:37:02.634Z,49.40
2019-05-02T13:42:09.825Z,51.90
2019-05-02T13:47:18.467Z,52.20
2019-05-02T13:52:25.103Z,50.50
2019-05-02T13:57:34.913Z,51.10
2019-05-02T14:02:42.889Z,52.50
2019-05-02T14:07:54.250Z,53.10
2019-05-02T14:13:00.597Z,53.20
2019-05-02T14:18:07.613Z,54.70
2019-05-02T14:23:14.488Z,52.20
2019-05-02T14:28:22.454Z,53.30
2019-05-02T14:33:32.879Z,51.20
2019-05-02T14:38:39.393Z,52.70
2019-05-02T14:43:56.490Z,51.20
2019-05-02T14:49:03.194Z,50.80
2019-05-02T14:54:12.076Z,54.10
2019-05-02T14:59:20.052Z,54.60
2019-05-02T15:04:26.990Z,55.70
2019-05-02T15:09:36.071Z,54.50
2019-05-02T15:14:43.237Z,52.50
2019-05-02T15:19:49.909Z,54.90
2019-05-02T15:24:56.618Z,51.00
2019-05-02T15:30:06.793Z,52.50
2019-05-02T15:35:26.845Z,57.50
2019-05-02T15:45:43.466Z,56.30
2019-05-02T15:50:52.919Z,54.90
2019-05-02T15:55:55.804Z,59.00
2019-05-02T16:01:36.717Z,56.80
2019-05-02T16:06:41.987Z,55.80
2019-05-02T16:11:53.279Z,56.20
2019-05-02T16:17:01.270Z,56.20
2019-05-02T16:22:18.027Z,56.20
2019-05-02T16:27:44.108Z,59.50
2019-05-02T16:32:56.854Z,55.50
2019-05-02T16:38:03.630Z,58.70
2019-05-02T16:43:12.080Z,57.90
2019-05-02T16:48:18.637Z,60.30
2019-05-02T16:53:26.340Z,59.80
2019-05-02T16:58:33.679Z,61.50
2019-05-02T17:03:42.064Z,64.80
2019-05-02T17:09:03.802Z,65.10
2019-05-02T17:14:13.521Z,63.30
2019-05-02T17:19:21.617Z,64.70
2019-05-02T17:24:28.597Z,64.90
2019-05-02T17:29:35.615Z,64.30
2019-05-02T17:34:42.769Z,65.60
2019-05-02T17:39:49.640Z,66.60
2019-05-02T17:45:06.145Z,63.70
2019-05-02T17:50:22.399Z,69.40
2019-05-02T17:55:34.541Z,67.40
2019-05-02T18:00:42.893Z,66.30
2019-05-02T18:05:49.445Z,69.90
2019-05-02T18:11:00.140Z,74.70
2019-05-02T18:16:07.883Z,80.10
2019-05-02T18:21:17.299Z,80.30
2019-05-02T18:26:22.286Z,83.30
2019-05-02T18:31:28.950Z,84.60
2019-05-02T18:36:35.649Z,80.10
2019-05-02T18:41:46.246Z,82.10
2019-05-02T18:46:51.933Z,86.20
2019-05-02T18:51:59.264Z,85.10
2019-05-02T18:57:05.906Z,86.40
2019-05-02T19:02:12.638Z,85.40
2019-05-02T19:07:32.247Z,86.10
2019-05-02T19:12:27.699Z,88.90
2019-05-02T19:17:38.407Z,87.40
2019-05-02T19:22:50.828Z,86.90
2019-05-02T19:27:59.351Z,86.30
2019-05-02T19:33:07.880Z,86.50
2019-05-02T19:38:17.119Z,86.80
2019-05-02T19:43:23.175Z,88.10
2019-05-02T19:48:32.931Z,88.90
2019-05-02T19:53:38.132Z,89.10
2019-05-02T19:58:46.625Z,89.00
2019-05-02T20:04:06.154Z,89.50
2019-05-02T20:09:13.187Z,90.40
2019-05-02T20:14:21.686Z,90.60
2019-05-02T20:19:29.260Z,90.50
2019-05-02T20:25:00.112Z,91.60
2019-05-02T20:30:04.129Z,92.40
2019-05-02T20:35:12.472Z,93.00
2019-05-02T20:40:31.827Z,94.80
2019-05-02T20:45:38.282Z,95.60
2019-05-02T20:50:44.905Z,96.20
2019-05-02T20:55:52.381Z,98.00
2019-05-02T21:01:07.693Z,97.00
2019-05-02T21:06:20.022Z,97.40
2019-05-02T21:11:27.435Z,96.80
2019-05-02T21:16:34.055Z,96.50
2019-05-02T21:21:42.636Z,98.90
2019-05-02T21:26:49.451Z,99.90
2019-05-02T21:31:56.192Z,99.90
2019-05-02T21:37:02.908Z,99.90
2019-05-02T21:42:09.524Z,99.90
2019-05-02T21:47:16.181Z,99.90
2019-05-02T21:52:32.480Z,99.90
2019-05-02T21:57:39.001Z,99.90
2019-05-02T22:02:45.628Z,99.90
2019-05-02T22:07:52.363Z,99.90
2019-05-02T22:12:59.043Z,99.40
2019-05-02T22:18:05.819Z,99.90
2019-05-02T22:23:12.377Z,99.90
2019-05-02T22:28:18.914Z,99.90
2019-05-02T22:33:25.627Z,99.90
2019-05-02T22:39:03.380Z,99.00
2019-05-02T22:44:12.499Z,99.90
2019-05-02T22:49:19.285Z,99.80
2019-05-02T22:54:30.332Z,99.90
2019-05-02T22:59:34.117Z,99.90
2019-05-02T23:04:41.763Z,99.90
2019-05-02T23:09:48.413Z,99.90
2019-05-02T23:14:55.068Z,99.90
2019-05-02T23:20:02.189Z,99.90
2019-05-02T23:25:32.219Z,99.90
2019-05-02T23:30:38.950Z,99.90
2019-05-02T23:35:45.578Z,99.90
2019-05-02T23:40:52.640Z,99.90
2019-05-02T23:45:59.278Z,99.90
2019-05-02T23:51:05.896Z,99.90
2019-05-02T23:56:13.170Z,99.90
